• Join FlightAware (Why Join?)
  • Login
  • US Flag 
02:39PM EDT


 

Airport Tracker/Info


-or-


 

Live Flight TrackerFlight Track Log ✈ SWA1729 ✈ 07-May-2013 ✈ KHOU - KELP

Flight Track Log - Related Links

Times and Time Zones

All times are in EDT time to prevent confusion due to time zone crossing. See the SWA1729 flight status page for this flight to view local times or setup timezone preferences in your user account.

Time Position Orientation Groundspeed Altitude Reporting Facility
EDT Latitude Longitude Course Direction KTS MPH feet Rate Location/Type
09:53PM 29.6008 -95.3244 221° Southwest 208 239 2,600  Level Houston Center
09:54PM 29.5933 -95.3403 241° Southwest 205 236 3,100 2,220 Climbing Houston Center
09:54PM 29.5714 -95.3931 244° Southwest 261 300 4,900 2,820 Climbing Houston Center
09:55PM 29.5642 -95.4125 247° West 242 278 6,000 3,600 Climbing Houston Center
09:56PM 29.5675 -95.4914 273° West 273 314 9,900 3,120 Climbing Houston Center
09:57PM 29.6117 -95.5744 301° West 303 349 12,400 2,880 Climbing Houston Center
09:58PM 29.6592 -95.6672 301° West 331 381 15,800 3,120 Climbing Houston Center
09:59PM 29.7075 -95.7625 300° West 342 394 18,800 2,700 Climbing Houston Center
10:00PM 29.7575 -95.8583 301° West 348 400 21,400 2,520 Climbing Houston Center
10:01PM 29.7997 -95.9639 295° West 359 413 24,000 2,700 Climbing Houston Center
10:02PM 29.8286 -96.0950 284° West 354 407 27,000 2,460 Climbing Houston Center
10:03PM 29.8539 -96.2036 285° West 353 406 29,100 1,800 Climbing Houston Center
10:04PM 29.8794 -96.3150 285° West 360 414 30,700 1,320 Climbing Houston Center
10:05PM 29.9050 -96.4289 285° West 368 423 31,900 1,080 Climbing Houston Center
10:06PM 29.9322 -96.5478 285° West 382 440 33,000 1,440 Climbing Houston Center
10:07PM 29.9589 -96.6683 284° West 388 447 34,900 1,440 Climbing Houston Center
10:08PM 29.9853 -96.7844 285° West 379 436 36,000 540 Climbing Houston Center
10:09PM 30.0111 -96.9033 284° West 383 441 36,000  Level Houston Center
10:10PM 30.0431 -97.0453 285° West 383 441 36,000  Level Houston Center
10:11PM 30.0697 -97.1636 285° West 382 440 36,000  Level Houston Center
10:12PM 30.0961 -97.2842 284° West 384 442 36,000  Level Houston Center
10:13PM 30.1228 -97.4042 284° West 382 440 36,000  Level Houston Center
10:14PM 30.1492 -97.5242 284° West 380 437 36,000  Level Houston Center
10:15PM 30.1747 -97.6458 284° West 382 440 36,000  Level Houston Center
10:16PM 30.2008 -97.7658 284° West 381 438 36,000  Level Houston Center
10:17PM 30.2272 -97.8872 284° West 382 440 36,000  Level Houston Center
10:18PM 30.2528 -98.0128 283° West 375 432 36,000  Level Houston Center
10:19PM 30.2786 -98.1325 284° West 382 440 36,000  Level Houston Center
10:20PM 30.3042 -98.2533 284° West 386 444 36,000  Level Houston Center
10:21PM 30.3289 -98.3717 284° West 389 448 36,000  Level Houston Center
10:22PM 30.3556 -98.4939 284° West 388 447 36,000  Level Houston Center
10:23PM 30.3808 -98.6158 284° West 388 447 36,000  Level Houston Center
10:24PM 30.4064 -98.7406 283° West 393 452 36,000  Level Houston Center
10:25PM 30.4333 -98.8647 284° West 394 453 36,000  Level Houston Center
10:26PM 30.4592 -98.9892 284° West 394 453 36,000  Level Houston Center
10:27PM 30.4839 -99.1144 283° West 395 455 36,000  Level Houston Center
10:28PM 30.5081 -99.2306 284° West 396 456 36,000  Level Houston Center
10:29PM 30.5383 -99.3783 283° West 394 453 36,000  Level Houston Center
10:30PM 30.5639 -99.5019 284° West 396 456 36,000  Level Houston Center
10:31PM 30.5883 -99.6261 283° West 398 458 36,000  Level Houston Center
10:32PM 30.6125 -99.7475 283° West 390 449 36,000  Level Houston Center
10:33PM 30.6369 -99.8697 283° West 391 450 36,000  Level Houston Center
10:34PM 30.6611 -99.9919 283° West 390 449 36,000  Level Houston Center
10:35PM 30.6856 -100.1136 283° West 389 448 36,000  Level Houston Center
10:36PM 30.7075 -100.2353 282° West 388 447 36,000  Level Houston Center
10:37PM 30.7322 -100.3572 283° West 390 449 36,000  Level Houston Center
10:38PM 30.7611 -100.5019 283° West 388 447 36,000  Level Houston Center
10:39PM 30.7839 -100.6292 282° West 404 465 36,000  Level Houston Center
10:40PM 30.8072 -100.7528 282° West 396 456 36,000  Level Houston Center
10:41PM 30.8306 -100.8761 282° West 394 453 36,000  Level Houston Center
10:43PM 30.8550 -101.0022 283° West 402 463 36,000  Level Houston Center
10:44PM 30.8772 -101.1244 282° West 394 453 36,000  Level Houston Center
10:45PM 30.9022 -101.2450 284° West 387 445 36,000  Level Houston Center
10:46PM 30.9264 -101.3700 283° West 392 451 36,000  Level Houston Center
10:46PM 30.9333 -101.4217 279° West 389 448 36,000  Level Albuquerque Center
10:47PM 30.9558 -101.5456 282° West 389 448 36,000  Level Albuquerque Center
10:48PM 30.9831 -101.6942 282° West 392 451 36,000  Level Albuquerque Center
10:49PM 31.0058 -101.8194 282° West 393 452 36,000  Level Albuquerque Center
10:50PM 31.0250 -101.9264 282° West 396 456 36,000  Level Albuquerque Center
10:51PM 31.0525 -102.0806 282° West 402 463 36,000  Level Albuquerque Center
10:52PM 31.0747 -102.2072 282° West 399 459 36,000  Level Albuquerque Center
10:53PM 31.0967 -102.3331 282° West 397 457 36,000  Level Albuquerque Center
10:54PM 31.1197 -102.4608 282° West 400 460 36,000  Level Albuquerque Center
10:55PM 31.1408 -102.5867 281° West 397 457 36,000  Level Albuquerque Center
10:56PM 31.1625 -102.7139 281° West 396 456 36,000  Level Albuquerque Center
10:57PM 31.1850 -102.8417 282° West 399 459 36,000  Level Albuquerque Center
10:58PM 31.2069 -102.9706 281° West 401 461 36,000  Level Albuquerque Center
10:59PM 31.2286 -103.0967 281° West 400 460 36,000  Level Albuquerque Center
11:00PM 31.2500 -103.2219 281° West 397 457 36,000  Level Albuquerque Center
11:01PM 31.2708 -103.3469 281° West 393 452 36,000  Level Albuquerque Center
11:02PM 31.2961 -103.4950 281° West 389 448 36,000  Level Albuquerque Center
11:03PM 31.3164 -103.6172 281° West 386 444 36,000  Level Albuquerque Center
11:04PM 31.3353 -103.7394 280° West 383 441 36,000  Level Albuquerque Center
11:05PM 31.3528 -103.8447 281° West 385 443 36,000  Level Albuquerque Center
11:06PM 31.3781 -103.9917 281° West 385 443 36,000  Level Albuquerque Center
11:07PM 31.3986 -104.1142 281° West 385 443 36,000  Level Albuquerque Center
11:08PM 31.4181 -104.2367 281° West 385 443 36,000  Level Albuquerque Center
11:09PM 31.4375 -104.3572 281° West 381 438 36,000  Level Albuquerque Center
11:11PM 31.4558 -104.4797 280° West 382 440 36,000  Level Albuquerque Center
11:12PM 31.4686 -104.6025 277° West 382 440 36,000 -60 Level Albuquerque Center
11:13PM 31.4819 -104.7244 277° West 380 437 35,900 -1,860 Descending Albuquerque Center
11:14PM 31.4964 -104.8708 277° West 379 436 32,300 -3,300 Descending Albuquerque Center
11:15PM 31.5089 -104.9942 277° West 382 440 29,300 -2,760 Descending Albuquerque Center
11:16PM 31.5206 -105.1133 277° West 374 430 26,700 -2,520 Descending Albuquerque Center
11:17PM 31.5328 -105.2286 277° West 362 417 24,200 -2,400 Descending Albuquerque Center
11:18PM 31.5436 -105.3419 276° West 355 409 21,900 -2,280 Descending Albuquerque Center
11:19PM 31.5542 -105.4478 277° West 333 383 19,600 -2,280 Descending Albuquerque Center
11:20PM 31.5642 -105.5536 276° West 330 380 17,300 -2,460 Descending Albuquerque Center
11:20PM 31.5656 -105.5958 272° West 329 379 16,400 -2,340 Descending Albuquerque Center
11:21PM 31.5744 -105.6619 279° West 333 383 14,900 -2,400 Descending Albuquerque Center
11:21PM 31.5775 -105.7050 275° West 334 384 14,000 -2,760 Descending Albuquerque Center
11:22PM 31.5922 -105.7853 282° West 323 372 12,100 -2,100 Descending Albuquerque Center
11:22PM 31.6003 -105.8042 297° West 335 386 11,900 -1,380 Descending Albuquerque Center
11:23PM 31.6322 -105.8750 298° West 309 356 10,700 -1,620 Descending Albuquerque Center
11:23PM 31.6381 -105.8919 292° West 301 346 10,300 -1,500 Descending Albuquerque Center
11:24PM 31.6661 -105.9600 296° West 288 331 9,200 -1,380 Descending Albuquerque Center
11:24PM 31.6733 -105.9781 295° West 287 330 8,900 -1,500 Descending Albuquerque Center
11:25PM 31.6961 -106.0397 293° West 270 311 7,700 -780 Descending Albuquerque Center
11:26PM 31.7272 -106.1167 295° West 262 302 7,500 -180 Descending Albuquerque Center
11:27PM 31.7644 -106.1878 302° West 258 297 7,400 -300 Descending Albuquerque Center
11:28PM 31.7936 -106.2389 304° West 187 215 6,900 -1,080 Descending Albuquerque Center
11:29PM 31.7967 -106.2839 275° West 141 162 5,200 -1,320 Descending Albuquerque Center
11:30PM 31.7994 -106.3353 274° West 133 153 4,300 -660 Descending Albuquerque Center
11:31PM 31.8022 -106.3778 274° West 131 151 3,900 -420 Descending Albuquerque Center
11:33PM 31.8000 -106.3667 270° West  Level FlightAware Approximate
11:40PM 31.8072 -106.3764 270° West  Level Estimated
11:41PM 31.8072 -106.3764 270° West  Level Estimated
11:42PM 31.8072 -106.3764 270° West  Level Estimated
11:43PM 31.8072 -106.3764 270° West  Level Estimated
11:44PM 31.8072 -106.3764 270° West  Level Estimated